sensor_id;sensor_type;location;lat;lon;timestamp;pressure;altitude;pressure_sealevel;temperature;humidity
21100;BME280;10708;50.824;4.408;2023-04-07T00:03:46;100585.38;;;8.63;100.00
21100;BME280;10708;50.824;4.408;2023-04-07T00:08:48;100588.56;;;8.74;100.00
21100;BME280;10708;50.824;4.408;2023-04-07T00:13:52;100587.56;;;8.78;100.00
21100;BME280;10708;50.824;4.408;2023-04-07T00:18:54;100587.66;;;8.75;100.00
21100;BME280;10708;50.824;4.408;2023-04-07T00:23:56;100598.22;;;8.72;100.00
21100;BME280;10708;50.824;4.408;2023-04-07T00:29:04;100598.22;;;8.72;100.00
21100;BME280;10708;50.824;4.408;2023-04-07T00:34:06;100590.69;;;8.60;100.00
21100;BME280;10708;50.824;4.408;2023-04-07T00:39:09;100589.75;;;8.63;100.00
21100;BME280;10708;50.824;4.408;2023-04-07T00:44:13;100587.31;;;8.57;100.00
21100;BME280;10708;50.824;4.408;2023-04-07T00:49:16;100588.88;;;8.62;100.00
21100;BME280;10708;50.824;4.408;2023-04-07T00:54:18;100585.31;;;8.65;100.00
21100;BME280;10708;50.824;4.408;2023-04-07T00:59:23;100588.25;;;8.54;100.00
21100;BME280;10708;50.824;4.408;2023-04-07T01:04:30;100586.69;;;8.47;100.00
21100;BME280;10708;50.824;4.408;2023-04-07T01:09:41;100583.31;;;8.42;100.00
21100;BME280;10708;50.824;4.408;2023-04-07T01:14:50;100588.25;;;8.54;100.00
21100;BME280;10708;50.824;4.408;2023-04-07T01:19:58;100581.31;;;8.51;100.00
21100;BME280;10708;50.824;4.408;2023-04-07T01:25:22;100581.75;;;8.35;100.00
21100;BME280;10708;50.824;4.408;2023-04-07T01:30:31;100580.88;;;8.36;100.00
21100;BME280;10708;50.824;4.408;2023-04-07T01:35:36;100582.25;;;8.49;100.00
21100;BME280;10708;50.824;4.408;2023-04-07T01:40:39;100590.19;;;8.47;100.00
21100;BME280;10708;50.824;4.408;2023-04-07T01:45:44;100586.16;;;8.34;100.00
21100;BME280;10708;50.824;4.408;2023-04-07T01:50:48;100583.28;;;8.43;100.00
21100;BME280;10708;50.824;4.408;2023-04-07T01:55:51;100594.72;;;8.41;100.00
21100;BME280;10708;50.824;4.408;2023-04-07T02:00:56;100589.31;;;8.47;100.00
21100;BME280;10708;50.824;4.408;2023-04-07T02:06:05;100595.84;;;8.29;100.00
21100;BME280;10708;50.824;4.408;2023-04-07T02:11:09;100588.81;;;8.33;100.00
21100;BME280;10708;50.824;4.408;2023-04-07T02:16:15;100587.66;;;8.43;100.00
21100;BME280;10708;50.824;4.408;2023-04-07T02:21:18;100598.56;;;8.26;100.00
21100;BME280;10708;50.824;4.408;2023-04-07T02:26:21;100596.72;;;8.31;100.00
21100;BME280;10708;50.824;4.408;2023-04-07T02:31:25;100593.28;;;8.28;100.00
21100;BME280;10708;50.824;4.408;2023-04-07T02:36:27;100596.84;;;8.25;100.00
21100;BME280;10708;50.824;4.408;2023-04-07T02:41:29;100586.44;;;8.22;100.00
21100;BME280;10708;50.824;4.408;2023-04-07T02:46:34;100594.19;;;8.27;100.00
21100;BME280;10708;50.824;4.408;2023-04-07T02:51:36;100590.03;;;8.18;100.00
21100;BME280;10708;50.824;4.408;2023-04-07T02:56:39;100606.59;;;8.20;100.00
21100;BME280;10708;50.824;4.408;2023-04-07T03:01:43;100599.50;;;8.24;100.00
21100;BME280;10708;50.824;4.408;2023-04-07T03:06:45;100615.19;;;8.27;100.00
21100;BME280;10708;50.824;4.408;2023-04-07T03:11:47;100606.44;;;8.26;100.00
21100;BME280;10708;50.824;4.408;2023-04-07T03:16:51;100605.44;;;8.32;100.00
21100;BME280;10708;50.824;4.408;2023-04-07T03:21:53;100614.16;;;8.34;100.00
21100;BME280;10708;50.824;4.408;2023-04-07T03:26:56;100625.59;;;8.30;100.00
21100;BME280;10708;50.824;4.408;2023-04-07T03:31:59;100617.84;;;8.25;100.00
21100;BME280;10708;50.824;4.408;2023-04-07T03:37:02;100614.09;;;8.37;100.00
21100;BME280;10708;50.824;4.408;2023-04-07T03:42:05;100621.31;;;8.26;100.00
21100;BME280;10708;50.824;4.408;2023-04-07T03:47:08;100617.03;;;8.22;100.00
21100;BME280;10708;50.824;4.408;2023-04-07T03:52:11;100617.81;;;8.27;100.00
21100;BME280;10708;50.824;4.408;2023-04-07T03:57:13;100618.66;;;8.27;100.00
21100;BME280;10708;50.824;4.408;2023-04-07T04:02:17;100619.72;;;8.19;100.00
21100;BME280;10708;50.824;4.408;2023-04-07T04:07:20;100630.41;;;8.12;100.00
21100;BME280;10708;50.824;4.408;2023-04-07T04:12:22;100626.66;;;8.23;100.00
21100;BME280;10708;50.824;4.408;2023-04-07T04:17:26;100630.09;;;8.25;100.00
21100;BME280;10708;50.824;4.408;2023-04-07T04:22:29;100636.22;;;8.25;100.00
21100;BME280;10708;50.824;4.408;2023-04-07T04:27:31;100631.78;;;8.27;100.00
21100;BME280;10708;50.824;4.408;2023-04-07T04:32:35;100642.34;;;8.24;100.00
21100;BME280;10708;50.824;4.408;2023-04-07T04:37:37;100637.91;;;8.28;100.00
21100;BME280;10708;50.824;4.408;2023-04-07T04:42:39;100643.25;;;8.23;100.00
21100;BME280;10708;50.824;4.408;2023-04-07T04:47:43;100656.34;;;8.25;100.00
21100;BME280;10708;50.824;4.408;2023-04-07T04:52:45;100651.94;;;8.25;100.00
21100;BME280;10708;50.824;4.408;2023-04-07T04:57:48;100652.88;;;8.23;100.00
21100;BME280;10708;50.824;4.408;2023-04-07T05:02:52;100648.56;;;8.20;100.00
21100;BME280;10708;50.824;4.408;2023-04-07T05:07:54;100658.28;;;8.17;100.00
21100;BME280;10708;50.824;4.408;2023-04-07T05:12:57;100653.16;;;8.10;100.00
21100;BME280;10708;50.824;4.408;2023-04-07T05:18:01;100661.16;;;8.06;100.00
21100;BME280;10708;50.824;4.408;2023-04-07T05:23:03;100661.13;;;8.07;100.00
21100;BME280;10708;50.824;4.408;2023-04-07T05:28:06;100672.56;;;8.05;100.00
21100;BME280;10708;50.824;4.408;2023-04-07T05:33:10;100676.06;;;8.04;100.00
21100;BME280;10708;50.824;4.408;2023-04-07T05:38:13;100689.16;;;8.05;100.00
21100;BME280;10708;50.824;4.408;2023-04-07T05:43:16;100693.66;;;7.99;100.00
21100;BME280;10708;50.824;4.408;2023-04-07T05:48:20;100692.84;;;7.97;100.00
21100;BME280;10708;50.824;4.408;2023-04-07T05:53:22;100703.25;;;8.00;100.00
21100;BME280;10708;50.824;4.408;2023-04-07T05:58:25;100709.22;;;8.08;100.00
21100;BME280;10708;50.824;4.408;2023-04-07T06:03:29;100709.09;;;8.12;100.00
21100;BME280;10708;50.824;4.408;2023-04-07T06:08:32;100705.56;;;8.13;100.00
21100;BME280;10708;50.824;4.408;2023-04-07T06:13:34;100707.97;;;8.23;100.00
21100;BME280;10708;50.824;4.408;2023-04-07T06:18:39;100713.84;;;8.35;100.00
21100;BME280;10708;50.824;4.408;2023-04-07T06:23:43;100715.44;;;8.41;100.00
21100;BME280;10708;50.824;4.408;2023-04-07T06:28:45;100722.38;;;8.43;100.00
21100;BME280;10708;50.824;4.408;2023-04-07T06:33:49;100724.06;;;8.46;100.00
21100;BME280;10708;50.824;4.408;2023-04-07T06:38:53;100737.28;;;8.41;100.00
21100;BME280;10708;50.824;4.408;2023-04-07T06:43:56;100725.66;;;8.51;100.00
21100;BME280;10708;50.824;4.408;2023-04-07T06:49:06;100735.09;;;8.59;100.00
21100;BME280;10708;50.824;4.408;2023-04-07T06:54:09;100735.97;;;8.59;100.00
21100;BME280;10708;50.824;4.408;2023-04-07T06:59:13;100745.72;;;8.56;100.00
21100;BME280;10708;50.824;4.408;2023-04-07T07:04:18;100751.97;;;8.48;100.00
21100;BME280;10708;50.824;4.408;2023-04-07T07:09:23;100756.09;;;8.59;100.00
21100;BME280;10708;50.824;4.408;2023-04-07T07:14:27;100759.72;;;8.55;100.00
21100;BME280;10708;50.824;4.408;2023-04-07T07:19:32;100770.75;;;8.69;100.00
21100;BME280;10708;50.824;4.408;2023-04-07T07:24:35;100777.66;;;8.73;100.00
21100;BME280;10708;50.824;4.408;2023-04-07T07:29:38;100783.16;;;8.62;100.00
21100;BME280;10708;50.824;4.408;2023-04-07T07:34:42;100787.69;;;8.57;100.00
21100;BME280;10708;50.824;4.408;2023-04-07T07:39:44;100795.69;;;8.51;100.00
21100;BME280;10708;50.824;4.408;2023-04-07T07:44:47;100808.16;;;8.41;100.00
21100;BME280;10708;50.824;4.408;2023-04-07T07:49:51;100805.19;;;8.57;100.00
21100;BME280;10708;50.824;4.408;2023-04-07T07:54:53;100807.47;;;8.70;100.00
21100;BME280;10708;50.824;4.408;2023-04-07T07:59:56;100805.34;;;8.86;100.00
21100;BME280;10708;50.824;4.408;2023-04-07T08:05:00;100803.66;;;8.83;100.00
21100;BME280;10708;50.824;4.408;2023-04-07T08:10:03;100815.75;;;8.89;100.00
21100;BME280;10708;50.824;4.408;2023-04-07T08:15:06;100833.59;;;8.76;100.00
21100;BME280;10708;50.824;4.408;2023-04-07T08:20:12;100833.88;;;8.64;100.00
21100;BME280;10708;50.824;4.408;2023-04-07T08:25:15;100841.22;;;8.87;100.00
21100;BME280;10708;50.824;4.408;2023-04-07T08:30:18;100846.34;;;8.92;100.00
21100;BME280;10708;50.824;4.408;2023-04-07T08:35:23;100856.97;;;8.87;100.00
21100;BME280;10708;50.824;4.408;2023-04-07T08:40:26;100866.88;;;8.76;100.00
21100;BME280;10708;50.824;4.408;2023-04-07T08:45:29;100863.56;;;8.68;100.00
21100;BME280;10708;50.824;4.408;2023-04-07T08:50:34;100862.50;;;8.75;100.00
21100;BME280;10708;50.824;4.408;2023-04-07T08:55:39;100858.16;;;8.74;100.00
21100;BME280;10708;50.824;4.408;2023-04-07T09:00:42;100862.34;;;8.81;100.00
21100;BME280;10708;50.824;4.408;2023-04-07T09:05:48;100864.59;;;8.98;100.00
21100;BME280;10708;50.824;4.408;2023-04-07T09:10:52;100860.53;;;9.18;100.00
21100;BME280;10708;50.824;4.408;2023-04-07T09:15:55;100857.97;;;9.51;100.00
21100;BME280;10708;50.824;4.408;2023-04-07T09:21:00;100853.38;;;9.90;100.00
21100;BME280;10708;50.824;4.408;2023-04-07T09:26:21;100851.25;;;10.33;100.00
21100;BME280;10708;50.824;4.408;2023-04-07T09:31:43;100848.03;;;10.52;100.00
21100;BME280;10708;50.824;4.408;2023-04-07T09:36:47;100843.19;;;11.20;100.00
21100;BME280;10708;50.824;4.408;2023-04-07T09:41:50;100845.53;;;11.54;100.00
21100;BME280;10708;50.824;4.408;2023-04-07T09:46:55;100839.50;;;11.26;100.00
21100;BME280;10708;50.824;4.408;2023-04-07T09:52:01;100836.00;;;11.25;100.00
21100;BME280;10708;50.824;4.408;2023-04-07T09:57:07;100840.88;;;10.85;100.00
21100;BME280;10708;50.824;4.408;2023-04-07T10:02:10;100844.63;;;11.04;100.00
21100;BME280;10708;50.824;4.408;2023-04-07T10:07:14;100843.53;;;11.36;100.00
21100;BME280;10708;50.824;4.408;2023-04-07T10:12:18;100841.31;;;11.48;100.00
21100;BME280;10708;50.824;4.408;2023-04-07T10:17:27;100841.25;;;11.76;100.00
21100;BME280;10708;50.824;4.408;2023-04-07T10:22:31;100840.41;;;11.25;100.00
21100;BME280;10708;50.824;4.408;2023-04-07T10:27:37;100839.31;;;11.30;100.00
21100;BME280;10708;50.824;4.408;2023-04-07T10:32:46;100837.38;;;12.55;100.00
21100;BME280;10708;50.824;4.408;2023-04-07T10:38:12;100834.84;;;12.52;100.00
21100;BME280;10708;50.824;4.408;2023-04-07T10:43:36;100854.03;;;12.10;100.00
21100;BME280;10708;50.824;4.408;2023-04-07T10:48:39;100854.56;;;11.72;100.00
21100;BME280;10708;50.824;4.408;2023-04-07T10:59:23;100875.56;;;10.42;100.00
21100;BME280;10708;50.824;4.408;2023-04-07T11:04:35;100875.25;;;10.23;100.00
21100;BME280;10708;50.824;4.408;2023-04-07T11:09:37;100878.78;;;10.22;100.00
21100;BME280;10708;50.824;4.408;2023-04-07T11:14:42;100876.84;;;10.28;100.00
21100;BME280;10708;50.824;4.408;2023-04-07T11:19:51;100876.34;;;10.73;100.00
21100;BME280;10708;50.824;4.408;2023-04-07T11:24:54;100878.66;;;10.84;100.00
21100;BME280;10708;50.824;4.408;2023-04-07T11:29:58;100871.63;;;11.10;100.00
21100;BME280;10708;50.824;4.408;2023-04-07T11:35:05;100871.63;;;11.37;100.00
21100;BME280;10708;50.824;4.408;2023-04-07T11:40:08;100872.25;;;11.68;100.00
21100;BME280;10708;50.824;4.408;2023-04-07T11:45:22;100883.97;;;11.08;100.00
21100;BME280;10708;50.824;4.408;2023-04-07T11:50:40;100886.13;;;10.69;100.00
21100;BME280;10708;50.824;4.408;2023-04-07T11:55:43;100898.72;;;10.60;100.00
21100;BME280;10708;50.824;4.408;2023-04-07T12:00:54;100901.72;;;10.77;100.00
21100;BME280;10708;50.824;4.408;2023-04-07T12:05:57;100898.72;;;10.60;100.00
21100;BME280;10708;50.824;4.408;2023-04-07T12:11:02;100906.28;;;10.70;100.00
21100;BME280;10708;50.824;4.408;2023-04-07T12:16:07;100903.66;;;11.25;100.00
21100;BME280;10708;50.824;4.408;2023-04-07T12:21:09;100912.22;;;11.05;100.00
21100;BME280;10708;50.824;4.408;2023-04-07T12:26:12;100914.88;;;10.77;100.00
21100;BME280;10708;50.824;4.408;2023-04-07T12:31:16;100919.94;;;10.55;100.00
21100;BME280;10708;50.824;4.408;2023-04-07T12:36:20;100926.78;;;10.31;100.00
21100;BME280;10708;50.824;4.408;2023-04-07T12:41:24;100924.41;;;10.22;100.00
21100;BME280;10708;50.824;4.408;2023-04-07T12:46:29;100924.22;;;10.28;100.00
21100;BME280;10708;50.824;4.408;2023-04-07T12:51:31;100931.00;;;10.37;100.00
21100;BME280;10708;50.824;4.408;2023-04-07T12:56:34;100932.94;;;10.60;100.00
21100;BME280;10708;50.824;4.408;2023-04-07T13:01:39;100935.97;;;10.77;100.00
21100;BME280;10708;50.824;4.408;2023-04-07T13:06:41;100939.53;;;10.75;100.00
21100;BME280;10708;50.824;4.408;2023-04-07T13:11:44;100929.91;;;10.44;100.00
21100;BME280;10708;50.824;4.408;2023-04-07T13:16:50;100937.25;;;10.33;100.00
21100;BME280;10708;50.824;4.408;2023-04-07T13:21:53;100947.19;;;10.23;100.00
21100;BME280;10708;50.824;4.408;2023-04-07T13:26:55;100945.72;;;10.12;100.00
21100;BME280;10708;50.824;4.408;2023-04-07T13:32:05;100950.09;;;10.13;100.00
21100;BME280;10708;50.824;4.408;2023-04-07T13:37:08;100954.34;;;10.18;100.00
21100;BME280;10708;50.824;4.408;2023-04-07T13:42:12;100955.97;;;10.24;100.00
21100;BME280;10708;50.824;4.408;2023-04-07T13:47:19;100946.03;;;10.33;100.00
21100;BME280;10708;50.824;4.408;2023-04-07T13:52:22;100943.44;;;10.32;100.00
21100;BME280;10708;50.824;4.408;2023-04-07T13:57:27;100943.03;;;10.46;100.00
21100;BME280;10708;50.824;4.408;2023-04-07T14:02:32;100948.91;;;10.55;100.00
21100;BME280;10708;50.824;4.408;2023-04-07T14:07:36;100943.72;;;10.52;100.00
21100;BME280;10708;50.824;4.408;2023-04-07T14:12:38;100947.28;;;10.79;100.00
21100;BME280;10708;50.824;4.408;2023-04-07T14:17:42;100949.06;;;10.79;100.00
21100;BME280;10708;50.824;4.408;2023-04-07T14:22:45;100953.00;;;10.65;100.00
21100;BME280;10708;50.824;4.408;2023-04-07T14:27:47;100966.47;;;10.55;100.00
21100;BME280;10708;50.824;4.408;2023-04-07T14:32:51;100959.97;;;10.37;100.00
21100;BME280;10708;50.824;4.408;2023-04-07T14:37:54;100956.66;;;10.60;100.00
21100;BME280;10708;50.824;4.408;2023-04-07T14:42:56;100957.03;;;10.77;100.00
21100;BME280;10708;50.824;4.408;2023-04-07T14:48:00;100957.69;;;10.84;100.00
21100;BME280;10708;50.824;4.408;2023-04-07T14:53:03;100968.28;;;10.53;100.00
21100;BME280;10708;50.824;4.408;2023-04-07T14:58:06;100956.97;;;10.49;100.00
21100;BME280;10708;50.824;4.408;2023-04-07T15:03:10;100959.19;;;10.63;100.00
21100;BME280;10708;50.824;4.408;2023-04-07T15:08:13;100964.47;;;10.63;100.00
21100;BME280;10708;50.824;4.408;2023-04-07T15:13:16;100968.25;;;10.54;100.00
21100;BME280;10708;50.824;4.408;2023-04-07T15:18:19;100975.28;;;10.54;100.00
21100;BME280;10708;50.824;4.408;2023-04-07T15:23:22;100973.00;;;10.42;100.00
21100;BME280;10708;50.824;4.408;2023-04-07T15:28:24;100974.09;;;10.34;100.00
21100;BME280;10708;50.824;4.408;2023-04-07T15:33:28;100983.72;;;10.35;100.00
21100;BME280;10708;50.824;4.408;2023-04-07T15:38:30;100995.16;;;10.34;100.00
21100;BME280;10708;50.824;4.408;2023-04-07T15:43:34;100986.84;;;10.16;100.00
21100;BME280;10708;50.824;4.408;2023-04-07T15:48:38;100987.72;;;10.16;100.00
21100;BME280;10708;50.824;4.408;2023-04-07T15:53:40;100985.94;;;10.18;100.00
21100;BME280;10708;50.824;4.408;2023-04-07T15:58:42;100992.63;;;10.30;100.00
21100;BME280;10708;50.824;4.408;2023-04-07T16:03:46;100996.13;;;10.30;100.00
21100;BME280;10708;50.824;4.408;2023-04-07T16:08:49;101002.19;;;10.34;100.00
21100;BME280;10708;50.824;4.408;2023-04-07T16:13:51;101003.66;;;10.10;100.00
21100;BME280;10708;50.824;4.408;2023-04-07T16:18:55;101003.69;;;10.09;100.00
21100;BME280;10708;50.824;4.408;2023-04-07T16:23:57;101020.59;;;10.00;100.00
21100;BME280;10708;50.824;4.408;2023-04-07T16:29:00;101014.53;;;9.98;100.00
21100;BME280;10708;50.824;4.408;2023-04-07T16:34:07;101022.19;;;10.07;100.00
21100;BME280;10708;50.824;4.408;2023-04-07T16:39:10;101025.38;;;10.20;100.00
21100;BME280;10708;50.824;4.408;2023-04-07T16:44:12;101035.25;;;10.10;100.00
21100;BME280;10708;50.824;4.408;2023-04-07T16:49:16;101040.72;;;10.03;100.00
21100;BME280;10708;50.824;4.408;2023-04-07T16:54:18;101033.00;;;9.96;100.00
21100;BME280;10708;50.824;4.408;2023-04-07T16:59:21;101046.41;;;9.86;100.00
21100;BME280;10708;50.824;4.408;2023-04-07T17:04:25;101053.56;;;9.79;100.00
21100;BME280;10708;50.824;4.408;2023-04-07T17:09:27;101059.84;;;9.75;100.00
21100;BME280;10708;50.824;4.408;2023-04-07T17:14:29;101065.75;;;9.83;100.00
21100;BME280;10708;50.824;4.408;2023-04-07T17:19:33;101077.72;;;9.59;100.00
21100;BME280;10708;50.824;4.408;2023-04-07T17:24:36;101080.56;;;9.50;100.00
21100;BME280;10708;50.824;4.408;2023-04-07T17:29:39;101083.94;;;9.57;100.00
21100;BME280;10708;50.824;4.408;2023-04-07T17:34:43;101085.97;;;9.46;100.00
21100;BME280;10708;50.824;4.408;2023-04-07T17:39:46;101099.84;;;9.51;100.00
21100;BME280;10708;50.824;4.408;2023-04-07T17:44:50;101107.06;;;9.43;100.00
21100;BME280;10708;50.824;4.408;2023-04-07T17:49:58;101105.72;;;9.23;100.00
21100;BME280;10708;50.824;4.408;2023-04-07T17:55:01;101123.19;;;9.28;100.00
21100;BME280;10708;50.824;4.408;2023-04-07T18:00:05;101116.16;;;9.28;100.00
21100;BME280;10708;50.824;4.408;2023-04-07T18:05:10;101121.44;;;9.27;100.00
21100;BME280;10708;50.824;4.408;2023-04-07T18:10:13;101124.16;;;9.22;100.00
21100;BME280;10708;50.824;4.408;2023-04-07T18:15:15;101126.78;;;9.22;100.00
21100;BME280;10708;50.824;4.408;2023-04-07T18:20:20;101132.25;;;9.11;100.00
21100;BME280;10708;50.824;4.408;2023-04-07T18:25:23;101141.16;;;9.06;100.00
21100;BME280;10708;50.824;4.408;2023-04-07T18:30:25;101136.13;;;8.94;100.00
21100;BME280;10708;50.824;4.408;2023-04-07T18:35:29;101137.16;;;8.86;100.00
21100;BME280;10708;50.824;4.408;2023-04-07T18:40:31;101151.16;;;8.87;100.00
21100;BME280;10708;50.824;4.408;2023-04-07T18:45:35;101157.31;;;8.86;100.00
21100;BME280;10708;50.824;4.408;2023-04-07T18:50:38;101163.41;;;8.88;100.00
21100;BME280;10708;50.824;4.408;2023-04-07T18:55:41;101177.34;;;8.90;100.00
21100;BME280;10708;50.824;4.408;2023-04-07T19:00:44;101175.56;;;8.92;100.00
21100;BME280;10708;50.824;4.408;2023-04-07T19:05:48;101176.47;;;8.89;100.00
21100;BME280;10708;50.824;4.408;2023-04-07T19:10:50;101189.44;;;8.99;100.00
21100;BME280;10708;50.824;4.408;2023-04-07T19:15:52;101191.16;;;9.00;100.00
21100;BME280;10708;50.824;4.408;2023-04-07T19:20:56;101191.94;;;9.06;100.00
21100;BME280;10708;50.824;4.408;2023-04-07T19:25:58;101193.84;;;8.98;100.00
21100;BME280;10708;50.824;4.408;2023-04-07T19:31:01;101197.56;;;8.86;100.00
21100;BME280;10708;50.824;4.408;2023-04-07T19:36:05;101187.06;;;8.86;100.00
21100;BME280;10708;50.824;4.408;2023-04-07T19:41:07;101202.81;;;8.86;100.00
21100;BME280;10708;50.824;4.408;2023-04-07T19:46:10;101211.53;;;8.88;100.00
21100;BME280;10708;50.824;4.408;2023-04-07T19:51:14;101203.69;;;8.87;100.00
21100;BME280;10708;50.824;4.408;2023-04-07T19:56:16;101223.00;;;8.84;100.00
21100;BME280;10708;50.824;4.408;2023-04-07T20:01:18;101220.47;;;8.78;100.00
21100;BME280;10708;50.824;4.408;2023-04-07T20:06:22;101223.13;;;8.77;100.00
21100;BME280;10708;50.824;4.408;2023-04-07T20:11:27;101230.00;;;8.84;100.00
21100;BME280;10708;50.824;4.408;2023-04-07T20:16:29;101235.25;;;8.85;100.00
21100;BME280;10708;50.824;4.408;2023-04-07T20:21:34;101237.16;;;8.77;100.00
21100;BME280;10708;50.824;4.408;2023-04-07T20:26:37;101242.09;;;8.93;100.00
21100;BME280;10708;50.824;4.408;2023-04-07T20:31:39;101243.03;;;8.90;100.00
21100;BME280;10708;50.824;4.408;2023-04-07T20:36:45;101241.41;;;8.83;100.00
21100;BME280;10708;50.824;4.408;2023-04-07T20:41:48;101246.66;;;8.83;100.00
21100;BME280;10708;50.824;4.408;2023-04-07T20:46:50;101238.84;;;8.78;100.00
21100;BME280;10708;50.824;4.408;2023-04-07T20:51:54;101243.25;;;8.78;100.00
21100;BME280;10708;50.824;4.408;2023-04-07T20:56:57;101244.25;;;8.71;100.00
21100;BME280;10708;50.824;4.408;2023-04-07T21:02:00;101262.59;;;8.74;100.00
21100;BME280;10708;50.824;4.408;2023-04-07T21:07:04;101256.50;;;8.70;100.00
21100;BME280;10708;50.824;4.408;2023-04-07T21:12:06;101260.88;;;8.70;100.00
21100;BME280;10708;50.824;4.408;2023-04-07T21:17:08;101268.03;;;8.62;100.00
21100;BME280;10708;50.824;4.408;2023-04-07T21:22:12;101263.47;;;8.73;100.00
21100;BME280;10708;50.824;4.408;2023-04-07T21:27:15;101264.69;;;8.52;100.00
21100;BME280;10708;50.824;4.408;2023-04-07T21:32:18;101261.88;;;8.63;100.00
21100;BME280;10708;50.824;4.408;2023-04-07T21:37:22;101267.25;;;8.57;100.00
21100;BME280;10708;50.824;4.408;2023-04-07T21:42:24;101265.44;;;8.60;100.00
21100;BME280;10708;50.824;4.408;2023-04-07T21:47:27;101263.69;;;8.59;100.00
21100;BME280;10708;50.824;4.408;2023-04-07T21:52:31;101263.66;;;8.62;100.00
21100;BME280;10708;50.824;4.408;2023-04-07T21:57:33;101268.00;;;8.65;100.00
21100;BME280;10708;50.824;4.408;2023-04-07T22:02:36;101271.53;;;8.62;100.00
21100;BME280;10708;50.824;4.408;2023-04-07T22:07:40;101273.44;;;8.52;100.00
21100;BME280;10708;50.824;4.408;2023-04-07T22:12:42;101269.97;;;8.49;100.00
21100;BME280;10708;50.824;4.408;2023-04-07T22:17:44;101270.81;;;8.52;100.00
21100;BME280;10708;50.824;4.408;2023-04-07T22:22:48;101276.00;;;8.57;100.00
21100;BME280;10708;50.824;4.408;2023-04-07T22:27:51;101277.00;;;8.48;100.00
21100;BME280;10708;50.824;4.408;2023-04-07T22:32:53;101279.84;;;8.35;100.00
21100;BME280;10708;50.824;4.408;2023-04-07T22:37:57;101276.19;;;8.45;100.00
21100;BME280;10708;50.824;4.408;2023-04-07T22:43:00;101273.53;;;8.46;100.00
21100;BME280;10708;50.824;4.408;2023-04-07T22:48:03;101278.72;;;8.51;100.00
21100;BME280;10708;50.824;4.408;2023-04-07T22:53:07;101280.56;;;8.46;100.00
21100;BME280;10708;50.824;4.408;2023-04-07T22:58:10;101286.66;;;8.48;100.00
21100;BME280;10708;50.824;4.408;2023-04-07T23:03:12;101285.84;;;8.43;100.00
21100;BME280;10708;50.824;4.408;2023-04-07T23:08:17;101279.75;;;8.39;100.00
21100;BME280;10708;50.824;4.408;2023-04-07T23:13:20;101289.34;;;8.42;100.00
21100;BME280;10708;50.824;4.408;2023-04-07T23:18:23;101276.22;;;8.42;100.00
21100;BME280;10708;50.824;4.408;2023-04-07T23:23:27;101294.72;;;8.36;100.00
21100;BME280;10708;50.824;4.408;2023-04-07T23:28:29;101286.84;;;8.36;100.00
21100;BME280;10708;50.824;4.408;2023-04-07T23:33:32;101289.38;;;8.40;100.00
21100;BME280;10708;50.824;4.408;2023-04-07T23:38:35;101294.63;;;8.40;100.00
21100;BME280;10708;50.824;4.408;2023-04-07T23:43:39;101297.16;;;8.48;100.00
21100;BME280;10708;50.824;4.408;2023-04-07T23:48:41;101301.53;;;8.47;100.00
21100;BME280;10708;50.824;4.408;2023-04-07T23:53:45;101295.31;;;8.51;100.00
21100;BME280;10708;50.824;4.408;2023-04-07T23:58:47;101299.66;;;8.56;100.00
